Aeroporto :
LOGIN :

Iscrizione | Disclaimer

   EN    FR    IT 

 










Sommario :    VFR   VFR Marginale   IFR   IFR Intensivo   IFR Molto Intensivo
Visibilità : 
Base nubi : 
>= 8 km
>= 3000ft
5 / 8 km
1000 / 3000 ft
1500m / 5 km
500 / 1000 ft
800 / 1500m
200 / 500 ft
< 800m
< 200 ft
Simboli :   Temporali  Nebbia  Neve Forte  Precipitazioni Forti  Vento > 20 kt
SIGMETs :   Varie  Temporali  Ghiacco  Turbolenza  Onda orograficha  Ceneri Vulcaniche






- Altitudine del aeroporto : 1161 ft
- Codice IATA : RJL


LELO - Logroño-Agoncillo

ULTIMO METAR :
  • 200430Z AUTO 27005KT CAVOK 03/01 Q1019

METARs OBSOLETI :
  • 200400Z AUTO 28004KT CAVOK 04/02 Q1019
  • 200330Z AUTO 28004KT CAVOK 03/01 Q1019
  • 200300Z AUTO 27004KT CAVOK 03/02 Q1019
  • 200230Z AUTO 00000KT CAVOK 04/03 Q1019
  • 200200Z AUTO 00000KT CAVOK 05/02 Q1019
  • 200130Z AUTO 00000KT CAVOK 04/02 Q1019
  • 200100Z AUTO VRB01KT CAVOK 05/03 Q1019
  • 200030Z AUTO 23003KT CAVOK 05/02 Q1019
  • 200000Z AUTO 00000KT CAVOK 06/03 Q1019

TAF TAF LELO
Valido dal 20 a 03 ore il 21 a 03 ore UTC


200200Z 2003/2103 03007KT CAVOK TX22/2013Z TN06/2005Z



MetMap, La meteo Aeronautica in un colpo d'occhio ! - Copyright ORBIFLY Dicembre 2007 - Disclaimer

ORBIFLY MET'MAP TEAM :

Programmazione e sviluppo : Alexandra Zaïnal
Concezione : Baudouin d'Aumeries
Supporto tecnico e logistico : Manuel Goepfert
Aiuto : Marc-Olivier Méhu
Aiuto per la traduzione : Arnaldo La Scala




FONTI E CREDITI :

   NOAA